sensor_id;sensor_type;location;lat;lon;timestamp;temperature;humidity
22202;DHT22;11266;51.522;6.302;2023-09-08T00:00:01;20.70;99.90
22202;DHT22;11266;51.522;6.302;2023-09-08T00:00:48;20.70;99.90
22202;DHT22;11266;51.522;6.302;2023-09-08T00:01:34;20.70;99.90
22202;DHT22;11266;51.522;6.302;2023-09-08T00:02:19;20.70;99.90
22202;DHT22;11266;51.522;6.302;2023-09-08T00:03:05;20.70;99.90
22202;DHT22;11266;51.522;6.302;2023-09-08T00:03:50;20.70;99.90
22202;DHT22;11266;51.522;6.302;2023-09-08T00:04:36;20.60;99.90
22202;DHT22;11266;51.522;6.302;2023-09-08T00:05:21;20.60;99.90
22202;DHT22;11266;51.522;6.302;2023-09-08T00:06:07;20.70;99.90
22202;DHT22;11266;51.522;6.302;2023-09-08T00:06:52;20.60;99.90
22202;DHT22;11266;51.522;6.302;2023-09-08T00:07:38;20.70;99.90
22202;DHT22;11266;51.522;6.302;2023-09-08T00:08:24;20.60;99.90
22202;DHT22;11266;51.522;6.302;2023-09-08T00:09:09;20.60;99.90
22202;DHT22;11266;51.522;6.302;2023-09-08T00:09:55;20.60;99.90
22202;DHT22;11266;51.522;6.302;2023-09-08T00:10:40;20.60;99.90
22202;DHT22;11266;51.522;6.302;2023-09-08T00:11:26;20.60;99.90
22202;DHT22;11266;51.522;6.302;2023-09-08T00:12:12;20.60;99.90
22202;DHT22;11266;51.522;6.302;2023-09-08T00:12:58;20.60;99.90
22202;DHT22;11266;51.522;6.302;2023-09-08T00:13:43;20.50;99.90
22202;DHT22;11266;51.522;6.302;2023-09-08T00:14:29;20.50;99.90
22202;DHT22;11266;51.522;6.302;2023-09-08T00:15:14;20.50;99.90
22202;DHT22;11266;51.522;6.302;2023-09-08T00:16:00;20.50;99.90
22202;DHT22;11266;51.522;6.302;2023-09-08T00:16:46;20.50;99.90
22202;DHT22;11266;51.522;6.302;2023-09-08T00:17:31;20.50;99.90
22202;DHT22;11266;51.522;6.302;2023-09-08T00:18:17;20.50;99.90
22202;DHT22;11266;51.522;6.302;2023-09-08T00:19:03;20.50;99.90
22202;DHT22;11266;51.522;6.302;2023-09-08T00:19:48;20.50;99.90
22202;DHT22;11266;51.522;6.302;2023-09-08T00:20:34;20.50;99.90
22202;DHT22;11266;51.522;6.302;2023-09-08T00:21:20;20.50;99.90
22202;DHT22;11266;51.522;6.302;2023-09-08T00:22:05;20.50;99.90
22202;DHT22;11266;51.522;6.302;2023-09-08T00:22:53;20.50;99.90
22202;DHT22;11266;51.522;6.302;2023-09-08T00:23:39;20.50;99.90
22202;DHT22;11266;51.522;6.302;2023-09-08T00:24:25;20.40;99.90
22202;DHT22;11266;51.522;6.302;2023-09-08T00:25:10;20.50;99.90
22202;DHT22;11266;51.522;6.302;2023-09-08T00:25:56;20.40;99.90
22202;DHT22;11266;51.522;6.302;2023-09-08T00:26:42;20.40;99.90
22202;DHT22;11266;51.522;6.302;2023-09-08T00:27:27;20.40;99.90
22202;DHT22;11266;51.522;6.302;2023-09-08T00:28:13;20.40;99.90
22202;DHT22;11266;51.522;6.302;2023-09-08T00:28:58;20.40;99.90
22202;DHT22;11266;51.522;6.302;2023-09-08T00:29:44;20.40;99.90
22202;DHT22;11266;51.522;6.302;2023-09-08T00:30:29;20.40;99.90
22202;DHT22;11266;51.522;6.302;2023-09-08T00:31:15;20.40;99.90
22202;DHT22;11266;51.522;6.302;2023-09-08T00:32:01;20.40;99.90
22202;DHT22;11266;51.522;6.302;2023-09-08T00:32:46;20.40;99.90
22202;DHT22;11266;51.522;6.302;2023-09-08T00:33:32;20.40;99.90
22202;DHT22;11266;51.522;6.302;2023-09-08T00:34:17;20.30;99.90
22202;DHT22;11266;51.522;6.302;2023-09-08T00:35:06;20.30;99.90
22202;DHT22;11266;51.522;6.302;2023-09-08T00:35:51;20.30;99.90
22202;DHT22;11266;51.522;6.302;2023-09-08T00:36:38;20.30;99.90
22202;DHT22;11266;51.522;6.302;2023-09-08T00:37:24;20.30;99.90
22202;DHT22;11266;51.522;6.302;2023-09-08T00:38:09;20.30;99.90
22202;DHT22;11266;51.522;6.302;2023-09-08T00:38:55;20.30;99.90
22202;DHT22;11266;51.522;6.302;2023-09-08T00:39:40;20.30;99.90
22202;DHT22;11266;51.522;6.302;2023-09-08T00:40:29;20.30;99.90
22202;DHT22;11266;51.522;6.302;2023-09-08T00:41:15;20.30;99.90
22202;DHT22;11266;51.522;6.302;2023-09-08T00:42:00;20.30;99.90
22202;DHT22;11266;51.522;6.302;2023-09-08T00:42:46;20.30;99.90
22202;DHT22;11266;51.522;6.302;2023-09-08T00:43:32;20.30;99.90
22202;DHT22;11266;51.522;6.302;2023-09-08T00:44:20;20.30;99.90
22202;DHT22;11266;51.522;6.302;2023-09-08T00:45:08;20.30;99.90
22202;DHT22;11266;51.522;6.302;2023-09-08T00:45:54;20.30;99.90
22202;DHT22;11266;51.522;6.302;2023-09-08T00:46:40;20.20;99.90
22202;DHT22;11266;51.522;6.302;2023-09-08T00:47:26;20.20;99.90
22202;DHT22;11266;51.522;6.302;2023-09-08T00:48:12;20.20;99.90
22202;DHT22;11266;51.522;6.302;2023-09-08T00:48:58;20.20;99.90
22202;DHT22;11266;51.522;6.302;2023-09-08T00:49:43;20.20;99.90
22202;DHT22;11266;51.522;6.302;2023-09-08T00:50:29;20.20;99.90
22202;DHT22;11266;51.522;6.302;2023-09-08T00:51:15;20.20;99.90
22202;DHT22;11266;51.522;6.302;2023-09-08T00:52:01;20.20;99.90
22202;DHT22;11266;51.522;6.302;2023-09-08T00:52:46;20.20;99.90
22202;DHT22;11266;51.522;6.302;2023-09-08T00:53:32;20.20;99.90
22202;DHT22;11266;51.522;6.302;2023-09-08T00:54:18;20.20;99.90
22202;DHT22;11266;51.522;6.302;2023-09-08T00:55:04;20.20;99.90
22202;DHT22;11266;51.522;6.302;2023-09-08T00:55:50;20.20;99.90
22202;DHT22;11266;51.522;6.302;2023-09-08T00:56:37;20.10;99.90
22202;DHT22;11266;51.522;6.302;2023-09-08T00:57:23;20.10;99.90
22202;DHT22;11266;51.522;6.302;2023-09-08T00:58:11;20.10;99.90
22202;DHT22;11266;51.522;6.302;2023-09-08T00:58:57;20.10;99.90
22202;DHT22;11266;51.522;6.302;2023-09-08T00:59:43;20.10;99.90
22202;DHT22;11266;51.522;6.302;2023-09-08T01:00:29;20.10;99.90
22202;DHT22;11266;51.522;6.302;2023-09-08T01:01:15;20.10;99.90
22202;DHT22;11266;51.522;6.302;2023-09-08T01:02:02;20.10;99.90
22202;DHT22;11266;51.522;6.302;2023-09-08T01:02:48;20.10;99.90
22202;DHT22;11266;51.522;6.302;2023-09-08T01:03:34;20.10;99.90
22202;DHT22;11266;51.522;6.302;2023-09-08T01:04:20;20.10;99.90
22202;DHT22;11266;51.522;6.302;2023-09-08T01:05:06;20.10;99.90
22202;DHT22;11266;51.522;6.302;2023-09-08T01:05:52;20.10;99.90
22202;DHT22;11266;51.522;6.302;2023-09-08T01:06:38;20.10;99.90
22202;DHT22;11266;51.522;6.302;2023-09-08T01:07:24;20.00;99.90
22202;DHT22;11266;51.522;6.302;2023-09-08T01:08:09;20.00;99.90
22202;DHT22;11266;51.522;6.302;2023-09-08T01:08:55;20.00;99.90
22202;DHT22;11266;51.522;6.302;2023-09-08T01:09:42;20.00;99.90
22202;DHT22;11266;51.522;6.302;2023-09-08T01:10:27;20.00;99.90
22202;DHT22;11266;51.522;6.302;2023-09-08T01:11:13;20.00;99.90
22202;DHT22;11266;51.522;6.302;2023-09-08T01:11:59;20.00;99.90
22202;DHT22;11266;51.522;6.302;2023-09-08T01:12:47;20.00;99.90
22202;DHT22;11266;51.522;6.302;2023-09-08T01:13:33;20.00;99.90
22202;DHT22;11266;51.522;6.302;2023-09-08T01:14:18;20.00;99.90
22202;DHT22;11266;51.522;6.302;2023-09-08T01:15:07;19.90;99.90
22202;DHT22;11266;51.522;6.302;2023-09-08T01:15:53;19.90;99.90
22202;DHT22;11266;51.522;6.302;2023-09-08T01:16:39;19.90;99.90
22202;DHT22;11266;51.522;6.302;2023-09-08T01:17:25;19.90;99.90
22202;DHT22;11266;51.522;6.302;2023-09-08T01:18:11;19.90;99.90
22202;DHT22;11266;51.522;6.302;2023-09-08T01:18:58;19.90;99.90
22202;DHT22;11266;51.522;6.302;2023-09-08T01:19:45;19.90;99.90
22202;DHT22;11266;51.522;6.302;2023-09-08T01:23:11;19.90;99.90
22202;DHT22;11266;51.522;6.302;2023-09-08T01:26:04;19.80;99.90
22202;DHT22;11266;51.522;6.302;2023-09-08T01:26:53;19.80;99.90
22202;DHT22;11266;51.522;6.302;2023-09-08T01:27:43;19.80;99.90
22202;DHT22;11266;51.522;6.302;2023-09-08T01:28:30;19.80;99.90
22202;DHT22;11266;51.522;6.302;2023-09-08T01:29:16;19.80;99.90
22202;DHT22;11266;51.522;6.302;2023-09-08T01:30:04;19.80;99.90
22202;DHT22;11266;51.522;6.302;2023-09-08T01:30:51;19.80;99.90
22202;DHT22;11266;51.522;6.302;2023-09-08T01:31:37;19.80;99.90
22202;DHT22;11266;51.522;6.302;2023-09-08T01:32:23;19.80;99.90
22202;DHT22;11266;51.522;6.302;2023-09-08T01:33:10;19.70;99.90
22202;DHT22;11266;51.522;6.302;2023-09-08T01:33:56;19.70;99.90
22202;DHT22;11266;51.522;6.302;2023-09-08T01:34:42;19.70;99.90
22202;DHT22;11266;51.522;6.302;2023-09-08T01:35:27;19.70;99.90
22202;DHT22;11266;51.522;6.302;2023-09-08T01:36:13;19.70;99.90
22202;DHT22;11266;51.522;6.302;2023-09-08T01:36:59;19.70;99.90
22202;DHT22;11266;51.522;6.302;2023-09-08T01:37:49;19.70;99.90
22202;DHT22;11266;51.522;6.302;2023-09-08T01:38:35;19.60;99.90
22202;DHT22;11266;51.522;6.302;2023-09-08T01:39:20;19.70;99.90
22202;DHT22;11266;51.522;6.302;2023-09-08T01:40:06;19.70;99.90
22202;DHT22;11266;51.522;6.302;2023-09-08T01:40:52;19.60;99.90
22202;DHT22;11266;51.522;6.302;2023-09-08T01:41:37;19.60;99.90
22202;DHT22;11266;51.522;6.302;2023-09-08T01:42:23;19.60;99.90
22202;DHT22;11266;51.522;6.302;2023-09-08T01:43:09;19.60;99.90
22202;DHT22;11266;51.522;6.302;2023-09-08T01:43:54;19.60;99.90
22202;DHT22;11266;51.522;6.302;2023-09-08T01:44:40;19.60;99.90
22202;DHT22;11266;51.522;6.302;2023-09-08T01:45:25;19.60;99.90
22202;DHT22;11266;51.522;6.302;2023-09-08T01:46:11;19.60;99.90
22202;DHT22;11266;51.522;6.302;2023-09-08T01:46:56;19.60;99.90
22202;DHT22;11266;51.522;6.302;2023-09-08T01:47:43;19.60;99.90
22202;DHT22;11266;51.522;6.302;2023-09-08T01:48:29;19.60;99.90
22202;DHT22;11266;51.522;6.302;2023-09-08T01:49:14;19.60;99.90
22202;DHT22;11266;51.522;6.302;2023-09-08T01:50:00;19.60;99.90
22202;DHT22;11266;51.522;6.302;2023-09-08T01:50:47;19.50;99.90
22202;DHT22;11266;51.522;6.302;2023-09-08T01:51:33;19.50;99.90
22202;DHT22;11266;51.522;6.302;2023-09-08T01:52:18;19.50;99.90
22202;DHT22;11266;51.522;6.302;2023-09-08T01:53:04;19.50;99.90
22202;DHT22;11266;51.522;6.302;2023-09-08T01:53:49;19.50;99.90
22202;DHT22;11266;51.522;6.302;2023-09-08T01:54:35;19.50;99.90
22202;DHT22;11266;51.522;6.302;2023-09-08T01:55:20;19.50;99.90
22202;DHT22;11266;51.522;6.302;2023-09-08T01:56:06;19.50;99.90
22202;DHT22;11266;51.522;6.302;2023-09-08T01:56:52;19.50;99.90
22202;DHT22;11266;51.522;6.302;2023-09-08T01:57:37;19.50;99.90
22202;DHT22;11266;51.522;6.302;2023-09-08T01:58:23;19.50;99.90
22202;DHT22;11266;51.522;6.302;2023-09-08T01:59:09;19.50;99.90
22202;DHT22;11266;51.522;6.302;2023-09-08T01:59:54;19.40;99.90
22202;DHT22;11266;51.522;6.302;2023-09-08T02:00:40;19.40;99.90
22202;DHT22;11266;51.522;6.302;2023-09-08T02:01:25;19.40;99.90
22202;DHT22;11266;51.522;6.302;2023-09-08T02:02:11;19.40;99.90
22202;DHT22;11266;51.522;6.302;2023-09-08T02:02:57;19.40;99.90
22202;DHT22;11266;51.522;6.302;2023-09-08T02:03:42;19.40;99.90
22202;DHT22;11266;51.522;6.302;2023-09-08T02:04:28;19.40;99.90
22202;DHT22;11266;51.522;6.302;2023-09-08T02:05:14;19.40;99.90
22202;DHT22;11266;51.522;6.302;2023-09-08T02:06:00;19.40;99.90
22202;DHT22;11266;51.522;6.302;2023-09-08T02:06:45;19.40;99.90
22202;DHT22;11266;51.522;6.302;2023-09-08T02:07:31;19.40;99.90
22202;DHT22;11266;51.522;6.302;2023-09-08T02:08:16;19.40;99.90
22202;DHT22;11266;51.522;6.302;2023-09-08T02:09:02;19.30;99.90
22202;DHT22;11266;51.522;6.302;2023-09-08T02:09:48;19.30;99.90
22202;DHT22;11266;51.522;6.302;2023-09-08T02:10:34;19.30;99.90
22202;DHT22;11266;51.522;6.302;2023-09-08T02:11:19;19.30;99.90
22202;DHT22;11266;51.522;6.302;2023-09-08T02:12:05;19.30;99.90
22202;DHT22;11266;51.522;6.302;2023-09-08T02:12:52;19.30;99.90
22202;DHT22;11266;51.522;6.302;2023-09-08T02:13:40;19.30;99.90
22202;DHT22;11266;51.522;6.302;2023-09-08T02:14:27;19.30;99.90
22202;DHT22;11266;51.522;6.302;2023-09-08T02:15:15;19.30;99.90
22202;DHT22;11266;51.522;6.302;2023-09-08T02:16:02;19.30;99.90
22202;DHT22;11266;51.522;6.302;2023-09-08T02:16:47;19.30;99.90
22202;DHT22;11266;51.522;6.302;2023-09-08T02:17:33;19.30;99.90
22202;DHT22;11266;51.522;6.302;2023-09-08T02:18:18;19.20;99.90
22202;DHT22;11266;51.522;6.302;2023-09-08T02:19:04;19.30;99.90
22202;DHT22;11266;51.522;6.302;2023-09-08T02:19:50;19.30;99.90
22202;DHT22;11266;51.522;6.302;2023-09-08T02:20:35;19.20;99.90
22202;DHT22;11266;51.522;6.302;2023-09-08T02:21:21;19.20;99.90
22202;DHT22;11266;51.522;6.302;2023-09-08T02:22:07;19.20;99.90
22202;DHT22;11266;51.522;6.302;2023-09-08T02:22:54;19.20;99.90
22202;DHT22;11266;51.522;6.302;2023-09-08T02:23:40;19.20;99.90
22202;DHT22;11266;51.522;6.302;2023-09-08T02:24:25;19.20;99.90
22202;DHT22;11266;51.522;6.302;2023-09-08T02:25:11;19.20;99.90
22202;DHT22;11266;51.522;6.302;2023-09-08T02:25:56;19.20;99.90
22202;DHT22;11266;51.522;6.302;2023-09-08T02:26:42;19.20;99.90
22202;DHT22;11266;51.522;6.302;2023-09-08T02:27:28;19.20;99.90
22202;DHT22;11266;51.522;6.302;2023-09-08T02:28:14;19.20;99.90
22202;DHT22;11266;51.522;6.302;2023-09-08T02:29:00;19.10;99.90
22202;DHT22;11266;51.522;6.302;2023-09-08T02:29:45;19.10;99.90
22202;DHT22;11266;51.522;6.302;2023-09-08T02:30:31;19.20;99.90
22202;DHT22;11266;51.522;6.302;2023-09-08T02:31:16;19.10;99.90
22202;DHT22;11266;51.522;6.302;2023-09-08T02:32:02;19.10;99.90
22202;DHT22;11266;51.522;6.302;2023-09-08T02:32:48;19.10;99.90
22202;DHT22;11266;51.522;6.302;2023-09-08T02:33:33;19.10;99.90
22202;DHT22;11266;51.522;6.302;2023-09-08T02:34:19;19.10;99.90
22202;DHT22;11266;51.522;6.302;2023-09-08T02:35:05;19.10;99.90
22202;DHT22;11266;51.522;6.302;2023-09-08T02:35:51;19.10;99.90
22202;DHT22;11266;51.522;6.302;2023-09-08T02:36:37;19.10;99.90
22202;DHT22;11266;51.522;6.302;2023-09-08T02:37:22;19.10;99.90
22202;DHT22;11266;51.522;6.302;2023-09-08T02:38:08;19.10;99.90
22202;DHT22;11266;51.522;6.302;2023-09-08T02:38:57;19.10;99.90
22202;DHT22;11266;51.522;6.302;2023-09-08T02:39:42;19.00;99.90
22202;DHT22;11266;51.522;6.302;2023-09-08T02:40:28;19.00;99.90
22202;DHT22;11266;51.522;6.302;2023-09-08T02:41:13;19.00;99.90
22202;DHT22;11266;51.522;6.302;2023-09-08T02:41:59;19.00;99.90
22202;DHT22;11266;51.522;6.302;2023-09-08T02:42:44;19.00;99.90
22202;DHT22;11266;51.522;6.302;2023-09-08T02:43:30;19.00;99.90
22202;DHT22;11266;51.522;6.302;2023-09-08T02:44:16;19.00;99.90
22202;DHT22;11266;51.522;6.302;2023-09-08T02:45:01;19.00;99.90
22202;DHT22;11266;51.522;6.302;2023-09-08T02:45:47;19.00;99.90
22202;DHT22;11266;51.522;6.302;2023-09-08T02:46:32;19.00;99.90
22202;DHT22;11266;51.522;6.302;2023-09-08T02:47:18;19.00;99.90
22202;DHT22;11266;51.522;6.302;2023-09-08T02:48:04;19.00;99.90
22202;DHT22;11266;51.522;6.302;2023-09-08T02:48:50;18.90;99.90
22202;DHT22;11266;51.522;6.302;2023-09-08T02:49:36;18.90;99.90
22202;DHT22;11266;51.522;6.302;2023-09-08T02:50:22;18.90;99.90
22202;DHT22;11266;51.522;6.302;2023-09-08T02:51:07;18.90;99.90
22202;DHT22;11266;51.522;6.302;2023-09-08T02:51:53;18.90;99.90
22202;DHT22;11266;51.522;6.302;2023-09-08T02:52:39;18.90;99.90
22202;DHT22;11266;51.522;6.302;2023-09-08T02:53:24;18.90;99.90
22202;DHT22;11266;51.522;6.302;2023-09-08T02:54:14;18.90;99.90
22202;DHT22;11266;51.522;6.302;2023-09-08T02:54:59;18.80;99.90
22202;DHT22;11266;51.522;6.302;2023-09-08T02:55:46;18.80;99.90
22202;DHT22;11266;51.522;6.302;2023-09-08T02:56:31;18.90;99.90
22202;DHT22;11266;51.522;6.302;2023-09-08T02:57:17;18.80;99.90
22202;DHT22;11266;51.522;6.302;2023-09-08T02:58:03;18.80;99.90
22202;DHT22;11266;51.522;6.302;2023-09-08T02:58:48;18.80;99.90
22202;DHT22;11266;51.522;6.302;2023-09-08T02:59:34;18.80;99.90
22202;DHT22;11266;51.522;6.302;2023-09-08T03:00:19;18.80;99.90
22202;DHT22;11266;51.522;6.302;2023-09-08T03:01:15;18.80;99.90
22202;DHT22;11266;51.522;6.302;2023-09-08T03:02:01;18.80;99.90
22202;DHT22;11266;51.522;6.302;2023-09-08T03:02:47;18.80;99.90
22202;DHT22;11266;51.522;6.302;2023-09-08T03:03:32;18.70;99.90
22202;DHT22;11266;51.522;6.302;2023-09-08T03:04:18;18.70;99.90
22202;DHT22;11266;51.522;6.302;2023-09-08T03:05:04;18.70;99.90
22202;DHT22;11266;51.522;6.302;2023-09-08T03:05:53;18.70;99.90
22202;DHT22;11266;51.522;6.302;2023-09-08T03:06:40;18.70;99.90
22202;DHT22;11266;51.522;6.302;2023-09-08T03:07:26;18.70;99.90
22202;DHT22;11266;51.522;6.302;2023-09-08T03:08:12;18.70;99.90
22202;DHT22;11266;51.522;6.302;2023-09-08T03:08:58;18.70;99.90
22202;DHT22;11266;51.522;6.302;2023-09-08T03:09:44;18.70;99.90
22202;DHT22;11266;51.522;6.302;2023-09-08T03:10:29;18.70;99.90
22202;DHT22;11266;51.522;6.302;2023-09-08T03:11:15;18.70;99.90
22202;DHT22;11266;51.522;6.302;2023-09-08T03:12:01;18.70;99.90
22202;DHT22;11266;51.522;6.302;2023-09-08T03:12:46;18.70;99.90
22202;DHT22;11266;51.522;6.302;2023-09-08T03:13:32;18.60;99.90
22202;DHT22;11266;51.522;6.302;2023-09-08T03:14:19;18.60;99.90
22202;DHT22;11266;51.522;6.302;2023-09-08T03:15:05;18.60;99.90
22202;DHT22;11266;51.522;6.302;2023-09-08T03:15:51;18.60;99.90
22202;DHT22;11266;51.522;6.302;2023-09-08T03:16:37;18.60;99.90
22202;DHT22;11266;51.522;6.302;2023-09-08T03:17:22;18.60;99.90
22202;DHT22;11266;51.522;6.302;2023-09-08T03:18:08;18.60;99.90
22202;DHT22;11266;51.522;6.302;2023-09-08T03:18:54;18.60;99.90
22202;DHT22;11266;51.522;6.302;2023-09-08T03:19:39;18.60;99.90
22202;DHT22;11266;51.522;6.302;2023-09-08T03:20:26;18.60;99.90
22202;DHT22;11266;51.522;6.302;2023-09-08T03:21:14;18.60;99.90
22202;DHT22;11266;51.522;6.302;2023-09-08T03:21:59;18.50;99.90
22202;DHT22;11266;51.522;6.302;2023-09-08T03:22:45;18.50;99.90
22202;DHT22;11266;51.522;6.302;2023-09-08T03:23:30;18.50;99.90
22202;DHT22;11266;51.522;6.302;2023-09-08T03:24:16;18.50;99.90
22202;DHT22;11266;51.522;6.302;2023-09-08T03:25:01;18.50;99.90
22202;DHT22;11266;51.522;6.302;2023-09-08T03:25:48;18.50;99.90
22202;DHT22;11266;51.522;6.302;2023-09-08T03:26:34;18.50;99.90
22202;DHT22;11266;51.522;6.302;2023-09-08T03:27:19;18.50;99.90
22202;DHT22;11266;51.522;6.302;2023-09-08T03:28:05;18.50;99.90
22202;DHT22;11266;51.522;6.302;2023-09-08T03:28:51;18.50;99.90
22202;DHT22;11266;51.522;6.302;2023-09-08T03:29:36;18.50;99.90
22202;DHT22;11266;51.522;6.302;2023-09-08T03:30:22;18.50;99.90
22202;DHT22;11266;51.522;6.302;2023-09-08T03:31:07;18.40;99.90
22202;DHT22;11266;51.522;6.302;2023-09-08T03:31:53;18.40;99.90
22202;DHT22;11266;51.522;6.302;2023-09-08T03:32:38;18.40;99.90
22202;DHT22;11266;51.522;6.302;2023-09-08T03:33:24;18.40;99.90
22202;DHT22;11266;51.522;6.302;2023-09-08T03:34:09;18.40;99.90
22202;DHT22;11266;51.522;6.302;2023-09-08T03:34:55;18.40;99.90
22202;DHT22;11266;51.522;6.302;2023-09-08T03:35:41;18.40;99.90
22202;DHT22;11266;51.522;6.302;2023-09-08T03:36:26;18.40;99.90
22202;DHT22;11266;51.522;6.302;2023-09-08T03:37:12;18.40;99.90
22202;DHT22;11266;51.522;6.302;2023-09-08T03:37:57;18.40;99.90
22202;DHT22;11266;51.522;6.302;2023-09-08T03:38:43;18.30;99.90
22202;DHT22;11266;51.522;6.302;2023-09-08T03:39:29;18.30;99.90
22202;DHT22;11266;51.522;6.302;2023-09-08T03:40:15;18.30;99.90
22202;DHT22;11266;51.522;6.302;2023-09-08T03:41:00;18.30;99.90
22202;DHT22;11266;51.522;6.302;2023-09-08T03:41:46;18.30;99.90
22202;DHT22;11266;51.522;6.302;2023-09-08T03:42:31;18.30;99.90
22202;DHT22;11266;51.522;6.302;2023-09-08T03:43:17;18.30;99.90
22202;DHT22;11266;51.522;6.302;2023-09-08T03:44:03;18.30;99.90
22202;DHT22;11266;51.522;6.302;2023-09-08T03:44:48;18.30;99.90
22202;DHT22;11266;51.522;6.302;2023-09-08T03:45:34;18.30;99.90
22202;DHT22;11266;51.522;6.302;2023-09-08T03:46:20;18.30;99.90
22202;DHT22;11266;51.522;6.302;2023-09-08T03:47:05;18.30;99.90
22202;DHT22;11266;51.522;6.302;2023-09-08T03:47:52;18.30;99.90
22202;DHT22;11266;51.522;6.302;2023-09-08T03:48:37;18.30;99.90
22202;DHT22;11266;51.522;6.302;2023-09-08T03:49:23;18.30;99.90
22202;DHT22;11266;51.522;6.302;2023-09-08T03:50:09;18.30;99.90
22202;DHT22;11266;51.522;6.302;2023-09-08T03:50:55;18.20;99.90
22202;DHT22;11266;51.522;6.302;2023-09-08T03:51:41;18.20;99.90
22202;DHT22;11266;51.522;6.302;2023-09-08T03:52:26;18.30;99.90
22202;DHT22;11266;51.522;6.302;2023-09-08T03:53:12;18.20;99.90
22202;DHT22;11266;51.522;6.302;2023-09-08T03:53:58;18.20;99.90
22202;DHT22;11266;51.522;6.302;2023-09-08T03:54:44;18.20;99.90
22202;DHT22;11266;51.522;6.302;2023-09-08T03:55:31;18.20;99.90
22202;DHT22;11266;51.522;6.302;2023-09-08T03:56:17;18.20;99.90
22202;DHT22;11266;51.522;6.302;2023-09-08T03:57:03;18.20;99.90
22202;DHT22;11266;51.522;6.302;2023-09-08T03:57:48;18.20;99.90
22202;DHT22;11266;51.522;6.302;2023-09-08T03:58:34;18.20;99.90
22202;DHT22;11266;51.522;6.302;2023-09-08T03:59:19;18.10;99.90
22202;DHT22;11266;51.522;6.302;2023-09-08T04:00:05;18.20;99.90
22202;DHT22;11266;51.522;6.302;2023-09-08T04:00:52;18.10;99.90
22202;DHT22;11266;51.522;6.302;2023-09-08T04:01:37;18.20;99.90
22202;DHT22;11266;51.522;6.302;2023-09-08T04:02:23;18.10;99.90
22202;DHT22;11266;51.522;6.302;2023-09-08T04:03:08;18.10;99.90
22202;DHT22;11266;51.522;6.302;2023-09-08T04:03:54;18.10;99.90
22202;DHT22;11266;51.522;6.302;2023-09-08T04:04:40;18.10;99.90
22202;DHT22;11266;51.522;6.302;2023-09-08T04:05:25;18.10;99.90
22202;DHT22;11266;51.522;6.302;2023-09-08T04:06:11;18.10;99.90
22202;DHT22;11266;51.522;6.302;2023-09-08T04:06:56;18.10;99.90
22202;DHT22;11266;51.522;6.302;2023-09-08T04:07:42;18.10;99.90
22202;DHT22;11266;51.522;6.302;2023-09-08T04:08:27;18.10;99.90
22202;DHT22;11266;51.522;6.302;2023-09-08T04:09:13;18.10;99.90
22202;DHT22;11266;51.522;6.302;2023-09-08T04:09:58;18.10;99.90
22202;DHT22;11266;51.522;6.302;2023-09-08T04:10:44;18.10;99.90
22202;DHT22;11266;51.522;6.302;2023-09-08T04:11:30;18.10;99.90
22202;DHT22;11266;51.522;6.302;2023-09-08T04:12:15;18.10;99.90
22202;DHT22;11266;51.522;6.302;2023-09-08T04:13:01;18.10;99.90
22202;DHT22;11266;51.522;6.302;2023-09-08T04:13:46;18.10;99.90
22202;DHT22;11266;51.522;6.302;2023-09-08T04:14:32;18.10;99.90
22202;DHT22;11266;51.522;6.302;2023-09-08T04:15:19;18.00;99.90
22202;DHT22;11266;51.522;6.302;2023-09-08T04:16:04;18.10;99.90
22202;DHT22;11266;51.522;6.302;2023-09-08T04:16:50;18.10;99.90
22202;DHT22;11266;51.522;6.302;2023-09-08T04:17:37;18.00;99.90
22202;DHT22;11266;51.522;6.302;2023-09-08T04:18:22;18.00;99.90
22202;DHT22;11266;51.522;6.302;2023-09-08T04:19:08;18.00;99.90
22202;DHT22;11266;51.522;6.302;2023-09-08T04:19:53;18.00;99.90
22202;DHT22;11266;51.522;6.302;2023-09-08T04:20:39;18.00;99.90
22202;DHT22;11266;51.522;6.302;2023-09-08T04:21:25;18.00;99.90
22202;DHT22;11266;51.522;6.302;2023-09-08T04:22:10;18.00;99.90
22202;DHT22;11266;51.522;6.302;2023-09-08T04:22:56;18.00;99.90
22202;DHT22;11266;51.522;6.302;2023-09-08T04:23:41;18.00;99.90
22202;DHT22;11266;51.522;6.302;2023-09-08T04:24:27;18.00;99.90
22202;DHT22;11266;51.522;6.302;2023-09-08T04:25:13;18.00;99.90
22202;DHT22;11266;51.522;6.302;2023-09-08T04:25:59;17.90;99.90
22202;DHT22;11266;51.522;6.302;2023-09-08T04:26:44;18.00;99.90
22202;DHT22;11266;51.522;6.302;2023-09-08T04:27:30;18.00;99.90
22202;DHT22;11266;51.522;6.302;2023-09-08T04:28:16;18.00;99.90
22202;DHT22;11266;51.522;6.302;2023-09-08T04:29:01;18.00;99.90
22202;DHT22;11266;51.522;6.302;2023-09-08T04:29:47;18.00;99.90
22202;DHT22;11266;51.522;6.302;2023-09-08T04:30:32;17.90;99.90
22202;DHT22;11266;51.522;6.302;2023-09-08T04:31:18;17.90;99.90
22202;DHT22;11266;51.522;6.302;2023-09-08T04:32:05;17.90;99.90
22202;DHT22;11266;51.522;6.302;2023-09-08T04:32:54;17.90;99.90
22202;DHT22;11266;51.522;6.302;2023-09-08T04:33:39;18.00;99.90
22202;DHT22;11266;51.522;6.302;2023-09-08T04:34:25;17.90;99.90
22202;DHT22;11266;51.522;6.302;2023-09-08T04:35:10;17.90;99.90
22202;DHT22;11266;51.522;6.302;2023-09-08T04:35:56;17.90;99.90
22202;DHT22;11266;51.522;6.302;2023-09-08T04:36:42;17.90;99.90
22202;DHT22;11266;51.522;6.302;2023-09-08T04:37:28;17.90;99.90
22202;DHT22;11266;51.522;6.302;2023-09-08T04:38:13;17.90;99.90
22202;DHT22;11266;51.522;6.302;2023-09-08T04:38:59;17.90;99.90
22202;DHT22;11266;51.522;6.302;2023-09-08T04:39:44;17.90;99.90
22202;DHT22;11266;51.522;6.302;2023-09-08T04:40:30;17.90;99.90
22202;DHT22;11266;51.522;6.302;2023-09-08T04:41:16;17.90;99.90
22202;DHT22;11266;51.522;6.302;2023-09-08T04:42:01;17.90;99.90
22202;DHT22;11266;51.522;6.302;2023-09-08T04:42:47;17.80;99.90
22202;DHT22;11266;51.522;6.302;2023-09-08T04:43:32;17.80;99.90
22202;DHT22;11266;51.522;6.302;2023-09-08T04:44:18;17.80;99.90
22202;DHT22;11266;51.522;6.302;2023-09-08T04:45:04;17.80;99.90
22202;DHT22;11266;51.522;6.302;2023-09-08T04:45:49;17.80;99.90
22202;DHT22;11266;51.522;6.302;2023-09-08T04:46:36;17.80;99.90
22202;DHT22;11266;51.522;6.302;2023-09-08T04:47:21;17.80;99.90
22202;DHT22;11266;51.522;6.302;2023-09-08T04:48:07;17.80;99.90
22202;DHT22;11266;51.522;6.302;2023-09-08T04:48:52;17.80;99.90
22202;DHT22;11266;51.522;6.302;2023-09-08T04:49:38;17.80;99.90
22202;DHT22;11266;51.522;6.302;2023-09-08T04:50:24;17.80;99.90
22202;DHT22;11266;51.522;6.302;2023-09-08T04:51:09;17.80;99.90
22202;DHT22;11266;51.522;6.302;2023-09-08T04:51:55;17.80;99.90
22202;DHT22;11266;51.522;6.302;2023-09-08T04:52:40;17.80;99.90
22202;DHT22;11266;51.522;6.302;2023-09-08T04:53:26;17.80;99.90
22202;DHT22;11266;51.522;6.302;2023-09-08T04:54:11;17.80;99.90